sensor_id;sensor_type;location;lat;lon;timestamp;P1;durP1;ratioP1;P2;durP2;ratioP2
6043;SDS011;3050;42.660;23.276;2023-12-04T00:00:53;1.10;;;0.77;;
6043;SDS011;3050;42.660;23.276;2023-12-04T00:03:32;2.03;;;1.83;;
6043;SDS011;3050;42.660;23.276;2023-12-04T00:06:03;2.17;;;1.43;;
6043;SDS011;3050;42.660;23.276;2023-12-04T00:08:44;1.63;;;1.53;;
6043;SDS011;3050;42.660;23.276;2023-12-04T00:11:15;3.20;;;2.23;;
6043;SDS011;3050;42.660;23.276;2023-12-04T00:14:10;5.33;;;2.23;;
6043;SDS011;3050;42.660;23.276;2023-12-04T00:16:42;2.70;;;2.00;;
6043;SDS011;3050;42.660;23.276;2023-12-04T00:19:21;1.50;;;1.40;;
6043;SDS011;3050;42.660;23.276;2023-12-04T00:21:56;2.47;;;2.00;;
6043;SDS011;3050;42.660;23.276;2023-12-04T00:24:28;1.93;;;1.83;;
6043;SDS011;3050;42.660;23.276;2023-12-04T00:27:19;1.47;;;1.40;;
6043;SDS011;3050;42.660;23.276;2023-12-04T00:29:52;1.73;;;1.63;;
6043;SDS011;3050;42.660;23.276;2023-12-04T00:32:20;1.70;;;1.60;;
6043;SDS011;3050;42.660;23.276;2023-12-04T00:34:50;2.87;;;2.10;;
6043;SDS011;3050;42.660;23.276;2023-12-04T00:37:18;1.67;;;1.57;;
6043;SDS011;3050;42.660;23.276;2023-12-04T00:39:47;2.07;;;1.87;;
6043;SDS011;3050;42.660;23.276;2023-12-04T00:42:18;1.70;;;1.40;;
6043;SDS011;3050;42.660;23.276;2023-12-04T00:44:47;2.43;;;1.40;;
6043;SDS011;3050;42.660;23.276;2023-12-04T00:47:19;1.97;;;1.87;;
6043;SDS011;3050;42.660;23.276;2023-12-04T00:49:46;1.73;;;1.63;;
6043;SDS011;3050;42.660;23.276;2023-12-04T00:52:20;3.17;;;2.00;;
6043;SDS011;3050;42.660;23.276;2023-12-04T00:54:47;2.17;;;1.97;;
6043;SDS011;3050;42.660;23.276;2023-12-04T00:57:15;2.53;;;2.07;;
6043;SDS011;3050;42.660;23.276;2023-12-04T00:59:43;13.00;;;2.43;;
6043;SDS011;3050;42.660;23.276;2023-12-04T01:02:14;5.43;;;1.57;;
6043;SDS011;3050;42.660;23.276;2023-12-04T01:04:44;2.23;;;1.93;;
6043;SDS011;3050;42.660;23.276;2023-12-04T01:07:15;6.73;;;2.17;;
6043;SDS011;3050;42.660;23.276;2023-12-04T01:09:44;2.27;;;2.03;;
6043;SDS011;3050;42.660;23.276;2023-12-04T01:12:11;1.60;;;1.50;;
6043;SDS011;3050;42.660;23.276;2023-12-04T01:14:44;2.03;;;1.93;;
6043;SDS011;3050;42.660;23.276;2023-12-04T01:17:11;1.07;;;1.07;;
6043;SDS011;3050;42.660;23.276;2023-12-04T01:19:45;2.37;;;1.83;;
6043;SDS011;3050;42.660;23.276;2023-12-04T01:22:15;2.60;;;2.40;;
6043;SDS011;3050;42.660;23.276;2023-12-04T01:24:45;1.87;;;1.77;;
6043;SDS011;3050;42.660;23.276;2023-12-04T01:27:13;3.13;;;2.83;;
6043;SDS011;3050;42.660;23.276;2023-12-04T01:29:40;3.37;;;2.53;;
6043;SDS011;3050;42.660;23.276;2023-12-04T01:32:09;4.43;;;3.97;;
6043;SDS011;3050;42.660;23.276;2023-12-04T01:34:39;3.40;;;2.67;;
6043;SDS011;3050;42.660;23.276;2023-12-04T01:37:08;3.63;;;3.00;;
6043;SDS011;3050;42.660;23.276;2023-12-04T01:39:47;3.23;;;2.30;;
6043;SDS011;3050;42.660;23.276;2023-12-04T01:42:15;4.90;;;3.03;;
6043;SDS011;3050;42.660;23.276;2023-12-04T01:44:46;4.77;;;2.10;;
6043;SDS011;3050;42.660;23.276;2023-12-04T01:47:22;3.00;;;2.67;;
6043;SDS011;3050;42.660;23.276;2023-12-04T01:49:55;2.03;;;1.90;;
6043;SDS011;3050;42.660;23.276;2023-12-04T01:52:22;4.17;;;2.93;;
6043;SDS011;3050;42.660;23.276;2023-12-04T01:54:51;3.63;;;2.87;;
6043;SDS011;3050;42.660;23.276;2023-12-04T01:57:19;2.93;;;2.73;;
6043;SDS011;3050;42.660;23.276;2023-12-04T01:59:48;4.17;;;2.77;;
6043;SDS011;3050;42.660;23.276;2023-12-04T02:02:16;3.97;;;1.83;;
6043;SDS011;3050;42.660;23.276;2023-12-04T02:04:45;3.73;;;2.13;;
6043;SDS011;3050;42.660;23.276;2023-12-04T02:07:13;4.70;;;2.87;;
6043;SDS011;3050;42.660;23.276;2023-12-04T02:09:43;3.93;;;2.77;;
6043;SDS011;3050;42.660;23.276;2023-12-04T02:12:15;2.50;;;2.33;;
6043;SDS011;3050;42.660;23.276;2023-12-04T02:14:47;5.27;;;1.93;;
6043;SDS011;3050;42.660;23.276;2023-12-04T02:17:20;2.50;;;2.27;;
6043;SDS011;3050;42.660;23.276;2023-12-04T02:19:48;1.83;;;1.67;;
6043;SDS011;3050;42.660;23.276;2023-12-04T02:22:18;3.30;;;2.10;;
6043;SDS011;3050;42.660;23.276;2023-12-04T02:24:56;3.47;;;1.70;;
6043;SDS011;3050;42.660;23.276;2023-12-04T02:27:26;3.30;;;2.40;;
6043;SDS011;3050;42.660;23.276;2023-12-04T02:29:56;1.77;;;1.67;;
6043;SDS011;3050;42.660;23.276;2023-12-04T02:32:24;2.13;;;1.33;;
6043;SDS011;3050;42.660;23.276;2023-12-04T02:34:54;2.00;;;1.80;;
6043;SDS011;3050;42.660;23.276;2023-12-04T02:37:22;2.90;;;2.50;;
6043;SDS011;3050;42.660;23.276;2023-12-04T02:39:50;2.13;;;1.80;;
6043;SDS011;3050;42.660;23.276;2023-12-04T02:42:22;1.43;;;1.33;;
6043;SDS011;3050;42.660;23.276;2023-12-04T02:44:55;7.73;;;1.63;;
6043;SDS011;3050;42.660;23.276;2023-12-04T02:47:24;3.37;;;2.27;;
6043;SDS011;3050;42.660;23.276;2023-12-04T02:49:55;4.43;;;2.30;;
6043;SDS011;3050;42.660;23.276;2023-12-04T02:52:26;4.37;;;2.17;;
6043;SDS011;3050;42.660;23.276;2023-12-04T02:55:01;2.43;;;2.00;;
6043;SDS011;3050;42.660;23.276;2023-12-04T02:57:41;2.63;;;2.40;;
6043;SDS011;3050;42.660;23.276;2023-12-04T03:00:22;2.67;;;1.70;;
6043;SDS011;3050;42.660;23.276;2023-12-04T03:03:22;2.27;;;2.07;;
6043;SDS011;3050;42.660;23.276;2023-12-04T03:06:03;2.00;;;1.87;;
6043;SDS011;3050;42.660;23.276;2023-12-04T03:08:36;2.43;;;2.23;;
6043;SDS011;3050;42.660;23.276;2023-12-04T03:11:07;3.77;;;3.27;;
6043;SDS011;3050;42.660;23.276;2023-12-04T03:13:48;1.87;;;1.77;;
6043;SDS011;3050;42.660;23.276;2023-12-04T03:16:18;3.53;;;2.63;;
6043;SDS011;3050;42.660;23.276;2023-12-04T03:18:49;3.70;;;3.50;;
6043;SDS011;3050;42.660;23.276;2023-12-04T03:21:17;3.40;;;2.03;;
6043;SDS011;3050;42.660;23.276;2023-12-04T03:23:45;1.80;;;1.70;;
6043;SDS011;3050;42.660;23.276;2023-12-04T03:26:12;5.03;;;1.70;;
6043;SDS011;3050;42.660;23.276;2023-12-04T03:28:40;2.40;;;2.20;;
6043;SDS011;3050;42.660;23.276;2023-12-04T03:31:13;3.23;;;1.80;;
6043;SDS011;3050;42.660;23.276;2023-12-04T03:33:42;1.90;;;1.80;;
6043;SDS011;3050;42.660;23.276;2023-12-04T03:36:15;3.20;;;1.73;;
6043;SDS011;3050;42.660;23.276;2023-12-04T03:38:44;1.43;;;1.33;;
6043;SDS011;3050;42.660;23.276;2023-12-04T03:41:14;2.73;;;2.53;;
6043;SDS011;3050;42.660;23.276;2023-12-04T03:43:45;3.33;;;1.83;;
6043;SDS011;3050;42.660;23.276;2023-12-04T03:46:17;2.33;;;2.17;;
6043;SDS011;3050;42.660;23.276;2023-12-04T03:48:53;5.50;;;2.57;;
6043;SDS011;3050;42.660;23.276;2023-12-04T03:51:23;2.33;;;1.43;;
6043;SDS011;3050;42.660;23.276;2023-12-04T03:53:53;3.73;;;2.30;;
6043;SDS011;3050;42.660;23.276;2023-12-04T03:56:22;2.53;;;1.93;;
6043;SDS011;3050;42.660;23.276;2023-12-04T03:58:51;1.60;;;1.50;;
6043;SDS011;3050;42.660;23.276;2023-12-04T04:01:20;2.27;;;1.90;;
6043;SDS011;3050;42.660;23.276;2023-12-04T04:03:47;2.77;;;2.53;;
6043;SDS011;3050;42.660;23.276;2023-12-04T04:06:18;3.07;;;2.87;;
6043;SDS011;3050;42.660;23.276;2023-12-04T04:08:47;2.27;;;1.80;;
6043;SDS011;3050;42.660;23.276;2023-12-04T04:11:18;3.00;;;2.70;;
6043;SDS011;3050;42.660;23.276;2023-12-04T04:13:51;6.00;;;2.50;;
6043;SDS011;3050;42.660;23.276;2023-12-04T04:16:24;2.77;;;2.10;;
6043;SDS011;3050;42.660;23.276;2023-12-04T04:18:52;1.53;;;1.53;;
6043;SDS011;3050;42.660;23.276;2023-12-04T04:21:21;2.13;;;1.97;;
6043;SDS011;3050;42.660;23.276;2023-12-04T04:23:49;2.27;;;2.07;;
6043;SDS011;3050;42.660;23.276;2023-12-04T04:26:19;3.77;;;1.87;;
6043;SDS011;3050;42.660;23.276;2023-12-04T04:28:53;3.60;;;2.07;;
6043;SDS011;3050;42.660;23.276;2023-12-04T04:31:32;1.97;;;1.40;;
6043;SDS011;3050;42.660;23.276;2023-12-04T04:34:03;2.77;;;1.60;;
6043;SDS011;3050;42.660;23.276;2023-12-04T04:36:34;2.83;;;1.77;;
6043;SDS011;3050;42.660;23.276;2023-12-04T04:39:15;2.07;;;1.90;;
6043;SDS011;3050;42.660;23.276;2023-12-04T04:41:44;1.37;;;1.20;;
6043;SDS011;3050;42.660;23.276;2023-12-04T04:44:12;3.23;;;2.30;;
6043;SDS011;3050;42.660;23.276;2023-12-04T04:46:44;3.10;;;2.17;;
6043;SDS011;3050;42.660;23.276;2023-12-04T04:49:17;2.50;;;2.40;;
6043;SDS011;3050;42.660;23.276;2023-12-04T04:51:47;3.70;;;2.50;;
6043;SDS011;3050;42.660;23.276;2023-12-04T04:54:17;1.87;;;1.77;;
6043;SDS011;3050;42.660;23.276;2023-12-04T04:56:50;3.07;;;2.20;;
6043;SDS011;3050;42.660;23.276;2023-12-04T04:59:26;3.10;;;2.20;;
6043;SDS011;3050;42.660;23.276;2023-12-04T05:01:59;1.37;;;1.37;;
6043;SDS011;3050;42.660;23.276;2023-12-04T05:04:40;2.90;;;2.77;;
6043;SDS011;3050;42.660;23.276;2023-12-04T05:07:13;3.93;;;2.63;;
6043;SDS011;3050;42.660;23.276;2023-12-04T05:09:51;3.23;;;2.37;;
6043;SDS011;3050;42.660;23.276;2023-12-04T05:12:26;1.90;;;1.83;;
6043;SDS011;3050;42.660;23.276;2023-12-04T05:15:14;2.37;;;2.17;;
6043;SDS011;3050;42.660;23.276;2023-12-04T05:17:47;10.13;;;2.37;;
6043;SDS011;3050;42.660;23.276;2023-12-04T05:20:23;3.30;;;1.83;;
6043;SDS011;3050;42.660;23.276;2023-12-04T05:22:53;3.47;;;3.10;;
6043;SDS011;3050;42.660;23.276;2023-12-04T05:25:21;1.40;;;1.30;;
6043;SDS011;3050;42.660;23.276;2023-12-04T05:27:52;2.50;;;1.90;;
6043;SDS011;3050;42.660;23.276;2023-12-04T05:30:45;1.93;;;1.83;;
6043;SDS011;3050;42.660;23.276;2023-12-04T05:33:29;5.10;;;2.83;;
6043;SDS011;3050;42.660;23.276;2023-12-04T05:36:02;5.23;;;3.03;;
6043;SDS011;3050;42.660;23.276;2023-12-04T05:38:47;3.00;;;2.80;;
6043;SDS011;3050;42.660;23.276;2023-12-04T05:42:05;2.23;;;2.10;;
6043;SDS011;3050;42.660;23.276;2023-12-04T05:44:23;3.77;;;2.83;;
6043;SDS011;3050;42.660;23.276;2023-12-04T05:47:03;5.73;;;3.13;;
6043;SDS011;3050;42.660;23.276;2023-12-04T05:49:38;4.07;;;2.07;;
6043;SDS011;3050;42.660;23.276;2023-12-04T05:52:06;4.50;;;2.60;;
6043;SDS011;3050;42.660;23.276;2023-12-04T05:54:37;2.67;;;2.47;;
6043;SDS011;3050;42.660;23.276;2023-12-04T05:57:11;2.50;;;2.40;;
6043;SDS011;3050;42.660;23.276;2023-12-04T05:59:46;4.67;;;2.40;;
6043;SDS011;3050;42.660;23.276;2023-12-04T06:02:22;4.87;;;2.47;;
6043;SDS011;3050;42.660;23.276;2023-12-04T06:08:16;2.13;;;2.03;;
6043;SDS011;3050;42.660;23.276;2023-12-04T06:10:56;3.07;;;2.63;;
6043;SDS011;3050;42.660;23.276;2023-12-04T06:13:38;3.50;;;2.33;;
6043;SDS011;3050;42.660;23.276;2023-12-04T06:16:54;4.03;;;3.30;;
6043;SDS011;3050;42.660;23.276;2023-12-04T06:19:07;5.80;;;3.23;;
6043;SDS011;3050;42.660;23.276;2023-12-04T06:21:49;4.20;;;3.43;;
6043;SDS011;3050;42.660;23.276;2023-12-04T06:24:23;4.27;;;2.70;;
6043;SDS011;3050;42.660;23.276;2023-12-04T06:26:55;3.80;;;3.50;;
6043;SDS011;3050;42.660;23.276;2023-12-04T06:29:43;5.77;;;3.33;;
6043;SDS011;3050;42.660;23.276;2023-12-04T06:32:18;3.23;;;2.17;;
6043;SDS011;3050;42.660;23.276;2023-12-04T06:34:51;6.90;;;3.40;;
6043;SDS011;3050;42.660;23.276;2023-12-04T06:37:27;2.87;;;2.77;;
6043;SDS011;3050;42.660;23.276;2023-12-04T06:40:03;2.60;;;2.20;;
6043;SDS011;3050;42.660;23.276;2023-12-04T06:42:35;2.50;;;2.40;;
6043;SDS011;3050;42.660;23.276;2023-12-04T06:45:10;2.93;;;2.70;;
6043;SDS011;3050;42.660;23.276;2023-12-04T06:47:41;3.70;;;3.03;;
6043;SDS011;3050;42.660;23.276;2023-12-04T06:50:16;3.67;;;3.17;;
6043;SDS011;3050;42.660;23.276;2023-12-04T06:53:00;3.23;;;3.00;;
6043;SDS011;3050;42.660;23.276;2023-12-04T06:55:41;2.30;;;2.20;;
6043;SDS011;3050;42.660;23.276;2023-12-04T06:58:26;3.30;;;3.03;;
6043;SDS011;3050;42.660;23.276;2023-12-04T07:00:55;8.47;;;2.83;;
6043;SDS011;3050;42.660;23.276;2023-12-04T07:03:27;8.70;;;3.57;;
6043;SDS011;3050;42.660;23.276;2023-12-04T07:06:08;4.17;;;2.60;;
6043;SDS011;3050;42.660;23.276;2023-12-04T07:08:52;3.27;;;3.00;;
6043;SDS011;3050;42.660;23.276;2023-12-04T07:14:34;8.17;;;2.83;;
6043;SDS011;3050;42.660;23.276;2023-12-04T07:20:10;2.77;;;2.57;;
6043;SDS011;3050;42.660;23.276;2023-12-04T07:22:53;5.87;;;3.43;;
6043;SDS011;3050;42.660;23.276;2023-12-04T07:25:35;3.37;;;3.07;;
6043;SDS011;3050;42.660;23.276;2023-12-04T07:28:21;2.97;;;2.77;;
6043;SDS011;3050;42.660;23.276;2023-12-04T07:31:01;4.00;;;3.43;;
6043;SDS011;3050;42.660;23.276;2023-12-04T07:36:33;3.93;;;2.90;;
6043;SDS011;3050;42.660;23.276;2023-12-04T07:39:02;5.27;;;3.37;;
6043;SDS011;3050;42.660;23.276;2023-12-04T07:41:34;3.57;;;3.27;;
6043;SDS011;3050;42.660;23.276;2023-12-04T07:44:04;3.40;;;2.80;;
6043;SDS011;3050;42.660;23.276;2023-12-04T07:46:50;4.83;;;2.43;;
6043;SDS011;3050;42.660;23.276;2023-12-04T07:49:27;3.40;;;3.10;;
6043;SDS011;3050;42.660;23.276;2023-12-04T07:51:57;6.47;;;2.67;;
6043;SDS011;3050;42.660;23.276;2023-12-04T07:54:35;4.07;;;2.53;;
6043;SDS011;3050;42.660;23.276;2023-12-04T07:57:05;4.67;;;3.07;;
6043;SDS011;3050;42.660;23.276;2023-12-04T07:59:35;4.40;;;2.50;;
6043;SDS011;3050;42.660;23.276;2023-12-04T08:02:13;3.20;;;2.80;;
6043;SDS011;3050;42.660;23.276;2023-12-04T08:04:55;2.93;;;2.73;;
6043;SDS011;3050;42.660;23.276;2023-12-04T08:07:36;3.40;;;3.10;;
6043;SDS011;3050;42.660;23.276;2023-12-04T08:10:14;7.90;;;3.10;;
6043;SDS011;3050;42.660;23.276;2023-12-04T08:12:44;2.53;;;2.43;;
6043;SDS011;3050;42.660;23.276;2023-12-04T08:15:17;3.87;;;2.67;;
6043;SDS011;3050;42.660;23.276;2023-12-04T08:18:12;3.97;;;2.70;;
6043;SDS011;3050;42.660;23.276;2023-12-04T08:24:01;3.37;;;3.13;;
6043;SDS011;3050;42.660;23.276;2023-12-04T08:26:29;4.23;;;3.17;;
6043;SDS011;3050;42.660;23.276;2023-12-04T08:29:11;5.73;;;3.67;;
6043;SDS011;3050;42.660;23.276;2023-12-04T08:31:49;2.97;;;2.67;;
6043;SDS011;3050;42.660;23.276;2023-12-04T08:34:30;1.63;;;1.53;;
6043;SDS011;3050;42.660;23.276;2023-12-04T08:37:01;3.43;;;1.93;;
6043;SDS011;3050;42.660;23.276;2023-12-04T08:39:30;3.13;;;2.90;;
6043;SDS011;3050;42.660;23.276;2023-12-04T08:42:02;2.57;;;2.00;;
6043;SDS011;3050;42.660;23.276;2023-12-04T08:44:30;1.83;;;1.73;;
6043;SDS011;3050;42.660;23.276;2023-12-04T08:47:05;1.80;;;1.70;;
6043;SDS011;3050;42.660;23.276;2023-12-04T08:49:35;2.57;;;2.13;;
6043;SDS011;3050;42.660;23.276;2023-12-04T08:52:13;2.67;;;2.23;;
6043;SDS011;3050;42.660;23.276;2023-12-04T08:54:41;2.73;;;2.53;;
6043;SDS011;3050;42.660;23.276;2023-12-04T08:57:28;2.80;;;1.90;;
6043;SDS011;3050;42.660;23.276;2023-12-04T08:59:58;21.07;;;2.43;;
6043;SDS011;3050;42.660;23.276;2023-12-04T09:03:00;1.93;;;1.83;;
6043;SDS011;3050;42.660;23.276;2023-12-04T09:05:26;2.30;;;2.10;;
6043;SDS011;3050;42.660;23.276;2023-12-04T09:07:56;1.97;;;1.87;;
6043;SDS011;3050;42.660;23.276;2023-12-04T09:10:24;1.80;;;1.70;;
6043;SDS011;3050;42.660;23.276;2023-12-04T09:12:53;2.20;;;2.10;;
6043;SDS011;3050;42.660;23.276;2023-12-04T09:15:24;1.77;;;1.63;;
6043;SDS011;3050;42.660;23.276;2023-12-04T09:17:54;2.37;;;2.17;;
6043;SDS011;3050;42.660;23.276;2023-12-04T09:20:37;1.90;;;1.80;;
6043;SDS011;3050;42.660;23.276;2023-12-04T09:23:12;1.80;;;1.70;;
6043;SDS011;3050;42.660;23.276;2023-12-04T09:25:42;1.67;;;1.57;;
6043;SDS011;3050;42.660;23.276;2023-12-04T09:28:16;1.80;;;1.70;;
6043;SDS011;3050;42.660;23.276;2023-12-04T09:30:49;1.73;;;1.63;;
6043;SDS011;3050;42.660;23.276;2023-12-04T09:33:19;1.80;;;1.70;;
6043;SDS011;3050;42.660;23.276;2023-12-04T09:35:55;1.83;;;1.53;;
6043;SDS011;3050;42.660;23.276;2023-12-04T09:38:25;2.57;;;2.20;;
6043;SDS011;3050;42.660;23.276;2023-12-04T09:40:53;1.90;;;1.80;;
6043;SDS011;3050;42.660;23.276;2023-12-04T09:43:23;2.50;;;2.30;;
6043;SDS011;3050;42.660;23.276;2023-12-04T09:45:53;1.77;;;1.63;;
6043;SDS011;3050;42.660;23.276;2023-12-04T09:48:31;3.33;;;2.33;;
6043;SDS011;3050;42.660;23.276;2023-12-04T09:51:18;2.17;;;1.80;;
6043;SDS011;3050;42.660;23.276;2023-12-04T09:54:05;1.97;;;1.87;;
6043;SDS011;3050;42.660;23.276;2023-12-04T09:56:47;1.80;;;1.70;;
6043;SDS011;3050;42.660;23.276;2023-12-04T09:59:29;3.27;;;1.87;;
6043;SDS011;3050;42.660;23.276;2023-12-04T10:01:56;2.43;;;2.23;;
6043;SDS011;3050;42.660;23.276;2023-12-04T10:04:29;1.83;;;1.73;;
6043;SDS011;3050;42.660;23.276;2023-12-04T10:07:07;1.87;;;1.77;;
6043;SDS011;3050;42.660;23.276;2023-12-04T10:09:36;1.80;;;1.70;;
6043;SDS011;3050;42.660;23.276;2023-12-04T10:12:05;2.17;;;2.07;;
6043;SDS011;3050;42.660;23.276;2023-12-04T10:14:35;1.67;;;1.67;;
6043;SDS011;3050;42.660;23.276;2023-12-04T10:17:13;2.97;;;2.20;;
6043;SDS011;3050;42.660;23.276;2023-12-04T10:19:45;2.23;;;2.13;;
6043;SDS011;3050;42.660;23.276;2023-12-04T10:22:19;7.80;;;2.07;;
6043;SDS011;3050;42.660;23.276;2023-12-04T10:24:51;2.50;;;2.30;;
6043;SDS011;3050;42.660;23.276;2023-12-04T10:27:27;2.30;;;2.20;;
6043;SDS011;3050;42.660;23.276;2023-12-04T10:29:54;2.20;;;2.10;;
6043;SDS011;3050;42.660;23.276;2023-12-04T10:32:23;2.23;;;1.90;;
6043;SDS011;3050;42.660;23.276;2023-12-04T10:34:51;1.73;;;1.63;;
6043;SDS011;3050;42.660;23.276;2023-12-04T10:37:36;2.53;;;2.33;;
6043;SDS011;3050;42.660;23.276;2023-12-04T10:40:12;3.00;;;2.10;;
6043;SDS011;3050;42.660;23.276;2023-12-04T10:42:51;3.63;;;2.40;;
6043;SDS011;3050;42.660;23.276;2023-12-04T10:45:28;2.07;;;1.93;;
6043;SDS011;3050;42.660;23.276;2023-12-04T10:48:12;10.37;;;2.43;;
6043;SDS011;3050;42.660;23.276;2023-12-04T10:51:02;5.07;;;2.10;;
6043;SDS011;3050;42.660;23.276;2023-12-04T10:53:37;2.33;;;2.20;;
6043;SDS011;3050;42.660;23.276;2023-12-04T10:56:07;2.43;;;2.23;;
6043;SDS011;3050;42.660;23.276;2023-12-04T10:58:39;2.00;;;1.90;;
6043;SDS011;3050;42.660;23.276;2023-12-04T11:01:16;2.10;;;2.00;;
6043;SDS011;3050;42.660;23.276;2023-12-04T11:03:51;2.00;;;1.90;;
6043;SDS011;3050;42.660;23.276;2023-12-04T11:06:26;2.53;;;1.63;;
6043;SDS011;3050;42.660;23.276;2023-12-04T11:09:25;2.17;;;2.07;;
6043;SDS011;3050;42.660;23.276;2023-12-04T11:12:13;2.67;;;1.90;;
6043;SDS011;3050;42.660;23.276;2023-12-04T11:14:53;2.20;;;2.10;;
6043;SDS011;3050;42.660;23.276;2023-12-04T11:17:22;2.07;;;1.97;;
6043;SDS011;3050;42.660;23.276;2023-12-04T11:19:54;3.40;;;2.90;;
6043;SDS011;3050;42.660;23.276;2023-12-04T11:22:23;3.27;;;2.50;;
6043;SDS011;3050;42.660;23.276;2023-12-04T11:24:55;4.20;;;2.57;;
6043;SDS011;3050;42.660;23.276;2023-12-04T11:27:22;3.10;;;2.80;;
6043;SDS011;3050;42.660;23.276;2023-12-04T11:29:50;3.23;;;2.80;;
6043;SDS011;3050;42.660;23.276;2023-12-04T11:32:20;2.63;;;2.53;;
6043;SDS011;3050;42.660;23.276;2023-12-04T11:34:54;4.30;;;3.37;;
6043;SDS011;3050;42.660;23.276;2023-12-04T11:37:31;3.30;;;2.23;;
6043;SDS011;3050;42.660;23.276;2023-12-04T11:42:56;4.70;;;1.93;;
6043;SDS011;3050;42.660;23.276;2023-12-04T11:45:27;3.00;;;2.80;;
6043;SDS011;3050;42.660;23.276;2023-12-04T11:48:27;3.00;;;2.23;;
6043;SDS011;3050;42.660;23.276;2023-12-04T11:51:17;2.83;;;2.63;;
6043;SDS011;3050;42.660;23.276;2023-12-04T11:54:13;4.03;;;2.50;;
6043;SDS011;3050;42.660;23.276;2023-12-04T11:57:01;2.20;;;2.10;;
6043;SDS011;3050;42.660;23.276;2023-12-04T12:02:25;2.33;;;2.20;;
6043;SDS011;3050;42.660;23.276;2023-12-04T12:05:12;2.63;;;2.43;;
6043;SDS011;3050;42.660;23.276;2023-12-04T12:10:33;3.63;;;2.40;;
6043;SDS011;3050;42.660;23.276;2023-12-04T12:13:01;4.83;;;2.73;;
6043;SDS011;3050;42.660;23.276;2023-12-04T12:15:32;2.37;;;2.20;;
6043;SDS011;3050;42.660;23.276;2023-12-04T12:18:02;3.33;;;3.03;;
6043;SDS011;3050;42.660;23.276;2023-12-04T12:20:36;3.53;;;2.57;;
6043;SDS011;3050;42.660;23.276;2023-12-04T12:23:06;2.73;;;2.30;;
6043;SDS011;3050;42.660;23.276;2023-12-04T12:25:35;5.03;;;2.53;;
6043;SDS011;3050;42.660;23.276;2023-12-04T12:28:04;6.43;;;2.83;;
6043;SDS011;3050;42.660;23.276;2023-12-04T12:30:36;3.30;;;3.00;;
6043;SDS011;3050;42.660;23.276;2023-12-04T12:33:29;3.70;;;2.83;;
6043;SDS011;3050;42.660;23.276;2023-12-04T12:36:23;5.23;;;3.00;;
6043;SDS011;3050;42.660;23.276;2023-12-04T12:38:50;3.47;;;2.63;;
6043;SDS011;3050;42.660;23.276;2023-12-04T12:41:19;4.27;;;2.83;;
6043;SDS011;3050;42.660;23.276;2023-12-04T12:43:47;3.37;;;2.87;;
6043;SDS011;3050;42.660;23.276;2023-12-04T12:46:21;3.20;;;3.00;;
6043;SDS011;3050;42.660;23.276;2023-12-04T12:48:52;13.13;;;4.30;;
6043;SDS011;3050;42.660;23.276;2023-12-04T12:51:22;4.63;;;3.43;;
6043;SDS011;3050;42.660;23.276;2023-12-04T12:53:51;6.13;;;3.57;;
6043;SDS011;3050;42.660;23.276;2023-12-04T12:56:19;6.00;;;2.90;;
6043;SDS011;3050;42.660;23.276;2023-12-04T12:58:47;2.83;;;2.63;;
6043;SDS011;3050;42.660;23.276;2023-12-04T13:01:22;4.03;;;3.30;;
6043;SDS011;3050;42.660;23.276;2023-12-04T13:06:59;3.40;;;2.40;;
6043;SDS011;3050;42.660;23.276;2023-12-04T13:09:27;3.90;;;2.13;;
6043;SDS011;3050;42.660;23.276;2023-12-04T13:11:57;6.00;;;2.40;;
6043;SDS011;3050;42.660;23.276;2023-12-04T13:14:30;2.80;;;2.60;;
6043;SDS011;3050;42.660;23.276;2023-12-04T13:17:02;5.37;;;2.30;;
6043;SDS011;3050;42.660;23.276;2023-12-04T13:19:31;3.23;;;2.97;;
6043;SDS011;3050;42.660;23.276;2023-12-04T13:22:03;4.13;;;3.20;;
6043;SDS011;3050;42.660;23.276;2023-12-04T13:24:35;7.47;;;3.77;;
6043;SDS011;3050;42.660;23.276;2023-12-04T13:27:02;4.90;;;3.57;;
6043;SDS011;3050;42.660;23.276;2023-12-04T13:32:25;5.50;;;3.53;;
6043;SDS011;3050;42.660;23.276;2023-12-04T13:35:06;14.53;;;6.30;;
6043;SDS011;3050;42.660;23.276;2023-12-04T13:37:54;7.33;;;4.57;;
6043;SDS011;3050;42.660;23.276;2023-12-04T13:40:28;6.47;;;4.27;;
6043;SDS011;3050;42.660;23.276;2023-12-04T13:42:58;5.00;;;4.10;;
6043;SDS011;3050;42.660;23.276;2023-12-04T13:45:47;6.17;;;4.23;;
6043;SDS011;3050;42.660;23.276;2023-12-04T13:48:17;7.67;;;4.63;;
6043;SDS011;3050;42.660;23.276;2023-12-04T13:50:48;7.37;;;4.50;;
6043;SDS011;3050;42.660;23.276;2023-12-04T13:53:27;5.17;;;3.97;;
6043;SDS011;3050;42.660;23.276;2023-12-04T13:56:06;8.03;;;4.47;;
6043;SDS011;3050;42.660;23.276;2023-12-04T13:58:50;10.13;;;3.97;;
6043;SDS011;3050;42.660;23.276;2023-12-04T14:01:23;7.00;;;4.87;;
6043;SDS011;3050;42.660;23.276;2023-12-04T14:03:55;10.43;;;5.20;;
6043;SDS011;3050;42.660;23.276;2023-12-04T14:06:30;11.33;;;4.80;;
6043;SDS011;3050;42.660;23.276;2023-12-04T14:09:04;9.73;;;5.43;;
6043;SDS011;3050;42.660;23.276;2023-12-04T14:11:36;9.30;;;5.63;;
6043;SDS011;3050;42.660;23.276;2023-12-04T14:14:12;8.87;;;5.83;;
6043;SDS011;3050;42.660;23.276;2023-12-04T14:16:49;5.70;;;5.17;;
6043;SDS011;3050;42.660;23.276;2023-12-04T14:19:41;14.23;;;4.83;;
6043;SDS011;3050;42.660;23.276;2023-12-04T14:22:21;7.13;;;4.70;;
6043;SDS011;3050;42.660;23.276;2023-12-04T14:24:57;11.20;;;6.13;;
6043;SDS011;3050;42.660;23.276;2023-12-04T14:27:31;8.87;;;4.90;;
6043;SDS011;3050;42.660;23.276;2023-12-04T14:30:16;8.07;;;4.37;;
6043;SDS011;3050;42.660;23.276;2023-12-04T14:32:58;6.03;;;3.47;;
6043;SDS011;3050;42.660;23.276;2023-12-04T14:35:37;9.77;;;4.80;;
6043;SDS011;3050;42.660;23.276;2023-12-04T14:38:14;12.43;;;5.43;;
6043;SDS011;3050;42.660;23.276;2023-12-04T14:41:04;13.37;;;5.03;;
6043;SDS011;3050;42.660;23.276;2023-12-04T14:46:51;11.17;;;5.83;;
6043;SDS011;3050;42.660;23.276;2023-12-04T14:49:40;10.70;;;5.73;;
6043;SDS011;3050;42.660;23.276;2023-12-04T14:52:25;16.67;;;4.70;;
6043;SDS011;3050;42.660;23.276;2023-12-04T14:55:05;12.23;;;5.53;;
6043;SDS011;3050;42.660;23.276;2023-12-04T14:57:56;25.10;;;6.50;;
6043;SDS011;3050;42.660;23.276;2023-12-04T15:01:14;12.23;;;6.30;;
6043;SDS011;3050;42.660;23.276;2023-12-04T15:04:07;14.43;;;7.00;;
6043;SDS011;3050;42.660;23.276;2023-12-04T15:06:59;12.43;;;5.60;;
6043;SDS011;3050;42.660;23.276;2023-12-04T15:10:01;10.70;;;4.60;;
6043;SDS011;3050;42.660;23.276;2023-12-04T15:12:47;16.17;;;8.77;;
6043;SDS011;3050;42.660;23.276;2023-12-04T15:15:43;9.27;;;6.47;;
6043;SDS011;3050;42.660;23.276;2023-12-04T15:18:26;8.90;;;6.03;;
6043;SDS011;3050;42.660;23.276;2023-12-04T15:21:15;12.17;;;6.87;;
6043;SDS011;3050;42.660;23.276;2023-12-04T15:26:45;19.03;;;7.27;;
6043;SDS011;3050;42.660;23.276;2023-12-04T15:29:24;12.10;;;6.97;;
6043;SDS011;3050;42.660;23.276;2023-12-04T15:41:06;15.63;;;6.83;;
6043;SDS011;3050;42.660;23.276;2023-12-04T15:43:37;26.20;;;6.57;;
6043;SDS011;3050;42.660;23.276;2023-12-04T15:46:23;12.20;;;5.33;;
6043;SDS011;3050;42.660;23.276;2023-12-04T15:49:03;10.83;;;6.60;;
6043;SDS011;3050;42.660;23.276;2023-12-04T15:51:55;14.68;;;6.93;;
6043;SDS011;3050;42.660;23.276;2023-12-04T15:54:38;13.70;;;6.57;;
6043;SDS011;3050;42.660;23.276;2023-12-04T15:57:24;12.80;;;6.90;;
6043;SDS011;3050;42.660;23.276;2023-12-04T15:59:57;12.30;;;7.17;;
6043;SDS011;3050;42.660;23.276;2023-12-04T16:03:05;10.33;;;4.63;;
6043;SDS011;3050;42.660;23.276;2023-12-04T16:05:49;12.13;;;6.50;;
6043;SDS011;3050;42.660;23.276;2023-12-04T16:08:30;10.00;;;4.77;;
6043;SDS011;3050;42.660;23.276;2023-12-04T16:11:12;6.33;;;5.27;;
6043;SDS011;3050;42.660;23.276;2023-12-04T16:28:57;20.60;;;10.43;;
6043;SDS011;3050;42.660;23.276;2023-12-04T16:31:40;45.23;;;21.87;;
6043;SDS011;3050;42.660;23.276;2023-12-04T16:34:29;25.93;;;12.57;;
6043;SDS011;3050;42.660;23.276;2023-12-04T16:37:14;18.60;;;9.37;;
6043;SDS011;3050;42.660;23.276;2023-12-04T16:42:07;25.73;;;12.70;;
6043;SDS011;3050;42.660;23.276;2023-12-04T16:43:11;33.73;;;12.73;;
6043;SDS011;3050;42.660;23.276;2023-12-04T16:49:11;32.13;;;15.03;;
6043;SDS011;3050;42.660;23.276;2023-12-04T16:51:45;40.13;;;14.93;;
6043;SDS011;3050;42.660;23.276;2023-12-04T16:54:31;32.97;;;13.13;;